Terminal Aerodrome Forecast
Issued by NWS Greer, SC

Home | Current Version | Previous Version | Text Only | Print | Product List | Glossary On
Versions: 1 2 3 4 5 6 7 8 9 10 11 12 13 14 15 16 17 18 19 20 21 22
000
FTUS42 KGSP 031143
TAFGSP
TAF
KGSP 031143Z 0312/0412 04006KT P6SM OVC020
     FM031400 05005KT P6SM -RA OVC012
      TEMPO 0315/0317 BKN008 OVC012
     FM031700 05006KT 5SM -RA BR OVC008
     FM040200 00000KT 3SM BR OVC003
     FM040900 22006KT 5SM BR OVC003 WS020/24040KT=

USA.gov is the U.S. government's official web portal to all federal, state and local government web resources and services.